Terminal Aerodrome Forecast
Issued by NWS

Home | Current Version | Previous Version | Text Only | Print | Product List | Glossary On
Versions: 1 2 3 4 5 6 7 8 9 10 11 12 13
000
FTUS42 TJSJ 201700
TAFIST
TAF
TIST 201728Z 2018/2118 10013KT P6SM SCT025 SCT040
     FM210000 07008KT P6SM VCSH SCT030
     FM211400 08012G18KT P6SM VCSH SCT025=

USA.gov is the U.S. government's official web portal to all federal, state and local government web resources and services.